Terminal Aerodrome Forecast
Issued by NWS Lubbock, TX

Home | Current Version | Previous Version | Text Only | Print | Product List | Glossary On
Versions: 1 2 3 4 5 6 7 8 9 10 11 12 13 14 15 16 17 18 19 20 21
261
FTUS44 KLUB 291148
TAFLBB
TAF
KLBB 291148Z 2912/3012 10008KT P6SM SCT050
      TEMPO 2912/2916 -SHRA SCT025=

USA.gov is the U.S. government's official web portal to all federal, state and local government web resources and services.